Aérodrome :
LOGIN :

S'inscrire | Disclaimer

   EN    FR    IT 

 










Légende :    VFR   VFR Marginal   IFR   IFR Intensif   IFR Très Intensif
Visi : 
Plafond : 
>= 8 km
>= 3000ft
5 à 8 km
1000 à 3000 ft
1500m à 5 km
500 à 1000 ft
800 à 1500m
200 à 500 ft
< 800m
< 200 ft
Symboles :   Orages  Brouillard  Fortes neiges  Fortes précipitations  Vent > 20 kt
SIGMETs :   Divers  Orages  Givrage  Turbulence  Onde Orograph.  Cendres Volcan.






- Altitude de l'aérodrome : 1768 ft


LEHC - Huesca Pirineos

DERNIER METAR :
  • 100630Z AUTO VRB02KT CAVOK 10/05 Q1021

METARs EXPIRÉS :
  • 100600Z AUTO 04001KT CAVOK 07/04 Q1021
  • 100530Z AUTO VRB02KT CAVOK 07/04 Q1021
  • 100500Z AUTO VRB02KT CAVOK 07/04 Q1021
  • 100430Z AUTO 07004KT 030V110 CAVOK 09/04 Q1021

TAF TAF LEHC
Valide du 10 à 03h jusqu'au 11 à 03h UTC


100200Z 1003/1103 09007KT 9999 FEW050 TX18/1012Z TN08/1006Z
BECMG 1007/1009 15010KT
BECMG 1014/1016 VRB04KT
PROB30
TEMPO 1100/1103 3000 RA



MET'MAP, la Météo Aéronautique d'un coup d'oeil ! - Copyright ORBIFLY Décembre 2007 - Disclaimer

ORBIFLY MET'MAP TEAM :

Programmation & Développement : Alexandra Zaïnal
Sur une idée originale de : Baudouin d'Aumeries
Assistance à la programmation : Marc-Olivier Méhu
Soutien technique & logistique : Manuel Goepfert

Contact : metmap@orbifly.com




SOURCES & CREDITS :

   NOAA